SondeTracker

Meteorological Radiosondes Database

Operations

Sounding was ended - last measurement: 2022-12-07 14:27:57z

MAP
About Radiosonde

Number: U3141504

Launch Site: São Paulo (BR)

Type: RS41-SGP

AUX: NO

Frequency: 405.301 MHz

Max Speed: 135 km/h at 10829 m

Average Speed: 59.71 km/h

Max Altitude: 25879 m

Average Ascent Speed: 6.67 m/s

Average Descent Speed: 3.62 m/s

Status: UNKNOWN

Status Changes
Launch Site Type AUX Frequency Status Finder Landing Point Description Changes made by
APRS Statistics

Received Frames: 374

First Frame [UTC]: 2022-12-07 11:32:39z

Last Frame [UTC]: 2022-12-07 14:27:57z

Receivers: PU2MUS-12, PU2PAG, PU2YGG-11, PY2GN-4, PY2PE-11

Flight Time: 02:55:18 h

Distance From First Measurement: 113.67 km

Nearest City: Mogi Guaçu (BR) [49.76 km]

Nearest Hunter: [0.00 km]

Ground Altitude: 862 m

Distance from QTH: 0.00 km

APRS Data
Receiver Number Date/Time [UTC] φ λ Course [°] Speed [km/h] Altitude [m] Description
PY2PE-11U31415042022-12-07 14:27:57-22.4987-46.4803115131257Clb=-2.8m/s t=19.4C h=89.1% p=874.6hPa 405.301 MHz Type=RS41-SGP ser=U3141504 Radiosonde
PY2PE-11U31415042022-12-07 14:27:26-22.4985-46.481276201311Clb=-3.1m/s t=19.0C h=90.7% p=869.2hPa 405.301 MHz Type=RS41-SGP ser=U3141504 Radiosonde
PY2PE-11U31415042022-12-07 14:26:55-22.4987-46.482585221419Clb=-3.5m/s t=18.5C h=90.0% p=858.2hPa 405.301 MHz Type=RS41-SGP ser=U3141504 Radiosonde
PY2PE-11U31415042022-12-07 14:26:24-22.4989-46.4837109191528Clb=-3.2m/s t=17.3C h=95.6% p=847.4hPa 405.301 MHz Type=RS41-SGP ser=U3141504 Radiosonde
PY2PE-11U31415042022-12-07 14:25:53-22.499-46.4851122151646Clb=-4.1m/s t=16.6C h=100.0% p=835.9hPa 405.301 MHz Type=RS41-SGP ser=U3141504 Radiosonde
PY2PE-11U31415042022-12-07 14:25:22-22.4989-46.4864123131753Clb=-3.6m/s t=16.3C h=94.9% p=825.9hPa 405.301 MHz Type=RS41-SGP ser=U3141504 Radiosonde
PY2PE-11U31415042022-12-07 14:24:51-22.4988-46.4878121131853Clb=-2.5m/s t=15.4C h=99.5% p=816.3hPa 405.301 MHz Type=RS41-SGP ser=U3141504 Radiosonde
PY2PE-11U31415042022-12-07 14:24:20-22.4987-46.48959391942Clb=-2.6m/s t=14.9C h=100.0% p=807.7hPa 405.301 MHz Type=RS41-SGP ser=U3141504 Radiosonde
PY2PE-11U31415042022-12-07 14:23:49-22.4987-46.49117192022Clb=-2.7m/s t=14.6C h=100.0% p=800.4hPa 405.301 MHz Type=RS41-SGP ser=U3141504 Radiosonde
PY2PE-11U31415042022-12-07 14:23:18-22.4987-46.492963202107Clb=-2.8m/s t=14.3C h=100.0% p=792.3hPa 405.301 MHz Type=RS41-SGP ser=U3141504 Radiosonde
PY2PE-11U31415042022-12-07 14:22:47-22.4989-46.494963262181Clb=-1.8m/s t=13.8C h=100.0% p=785.5hPa 405.301 MHz Type=RS41-SGP ser=U3141504 Radiosonde
PY2PE-11U31415042022-12-07 14:22:16-22.499-46.497273312232Clb=-2.0m/s t=13.6C h=100.0% p=780.7hPa 405.301 MHz Type=RS41-SGP ser=U3141504 Radiosonde
PY2PE-11U31415042022-12-07 14:21:44-22.4995-46.499492262282Clb=-2.3m/s t=13.5C h=100.0% p=776.0hPa 405.301 MHz Type=RS41-SGP ser=U3141504 Radiosonde
PY2PE-11U31415042022-12-07 14:21:13-22.4999-46.502169222349Clb=-1.6m/s t=13.1C h=100.0% p=770.0hPa 405.301 MHz Type=RS41-SGP ser=U3141504 Radiosonde
PY2PE-11U31415042022-12-07 14:20:42-22.5001-46.504871312413Clb=-2.1m/s t=12.8C h=100.0% p=763.9hPa 405.301 MHz Type=RS41-SGP ser=U3141504 Radiosonde
PY2PE-11U31415042022-12-07 14:20:11-22.5004-46.507578392474Clb=-2.4m/s t=12.1C h=100.0% p=758.4hPa 405.301 MHz Type=RS41-SGP ser=U3141504 Radiosonde
PY2PE-11U31415042022-12-07 14:19:40-22.5014-46.510576412577Clb=-3.0m/s t=11.8C h=100.0% p=749.3hPa 405.301 MHz Type=RS41-SGP ser=U3141504 Radiosonde
PY2PE-11U31415042022-12-07 14:19:09-22.5021-46.51473442663Clb=-3.1m/s t=11.2C h=100.0% p=741.6hPa 405.301 MHz Type=RS41-SGP ser=U3141504 Radiosonde
PY2PE-11U31415042022-12-07 14:18:38-22.5031-46.516773242748Clb=-4.2m/s t=11.0C h=100.0% p=733.9hPa 405.301 MHz Type=RS41-SGP ser=U3141504 Radiosonde
PY2PE-11U31415042022-12-07 14:18:07-22.5038-46.51964352854Clb=-2.8m/s t=10.7C h=100.0% p=725.3hPa 405.301 MHz Type=RS41-SGP ser=U3141504 Radiosonde
PY2PE-11U31415042022-12-07 14:17:36-22.505-46.520950312962Clb=-3.2m/s t=10.4C h=100.0% p=716.0hPa 405.301 MHz Type=RS41-SGP ser=U3141504 Radiosonde
PY2PE-11U31415042022-12-07 14:17:05-22.5061-46.522570193057Clb=-2.4m/s t=9.8C h=100.0% p=707.9hPa 405.301 MHz Type=RS41-SGP ser=U3141504 Radiosonde
PY2PE-11U31415042022-12-07 14:16:34-22.5071-46.524445303122Clb=-1.8m/s t=9.7C h=100.0% p=702.3hPa 405.301 MHz Type=RS41-SGP ser=U3141504 Radiosonde
PY2PE-11U31415042022-12-07 14:16:03-22.5083-46.525731193180Clb=-1.6m/s t=9.5C h=100.0% p=697.5hPa 405.301 MHz Type=RS41-SGP ser=U3141504 Radiosonde
PY2PE-11U31415042022-12-07 14:15:32-22.5094-46.527470303235Clb=-1.7m/s t=9.2C h=100.0% p=693.1hPa 405.301 MHz Type=RS41-SGP ser=U3141504 Radiosonde
PY2PE-11U31415042022-12-07 14:15:01-22.5106-46.529338283277Clb=-0.4m/s t=8.5C h=94.4% p=689.6hPa 405.301 MHz Type=RS41-SGP ser=U3141504 Radiosonde
PY2PE-11U31415042022-12-07 14:14:30-22.5118-46.53163313324Clb=-1.5m/s t=8.1C h=93.7% p=685.8hPa 405.301 MHz Type=RS41-SGP ser=U3141504 Radiosonde
PY2PE-11U31415042022-12-07 14:13:59-22.5132-46.532735223364Clb=-0.9m/s t=8.5C h=88.6% p=682.4hPa 405.301 MHz Type=RS41-SGP ser=U3141504 Radiosonde
PY2PE-11U31415042022-12-07 14:13:28-22.5145-46.534459313394Clb=-0.5m/s t=8.2C h=90.2% p=680.0hPa 405.301 MHz Type=RS41-SGP ser=U3141504 Radiosonde
PY2PE-11U31415042022-12-07 14:12:57-22.5172-46.537458193448Clb=-1.2m/s t=8.0C h=89.8% p=675.5hPa 405.301 MHz Type=RS41-SGP ser=U3141504 Radiosonde
PY2PE-11U31415042022-12-07 14:11:54-22.52-46.541235313523Clb=-1.1m/s t=7.9C h=81.7% p=669.4hPa 405.301 MHz Type=RS41-SGP ser=U3141504 Radiosonde
PY2PE-11U31415042022-12-07 14:11:24-22.5204-46.541862353533Clb=-0.7m/s t=7.8C h=80.9% p=668.6hPa 405.301 MHz Type=RS41-SGP ser=U3141504 Radiosonde
PY2PE-11U31415042022-12-07 14:10:52-22.5226-46.544757283593Clb=-1.5m/s t=7.4C h=78.9% p=663.8hPa 405.301 MHz Type=RS41-SGP ser=U3141504 Radiosonde
PY2PE-11U31415042022-12-07 14:10:21-22.5239-46.546661393641Clb=-1.9m/s t=7.1C h=80.8% p=659.8hPa 405.301 MHz Type=RS41-SGP ser=U3141504 Radiosonde
PY2PE-11U31415042022-12-07 14:09:19-22.5281-46.550847303785Clb=-1.8m/s t=6.1C h=76.8% p=648.5hPa 405.301 MHz Type=RS41-SGP ser=U3141504 Radiosonde
PY2PE-11U31415042022-12-07 14:08:48-22.5305-46.553233463848Clb=-1.7m/s t=5.9C h=69.3% p=643.5hPa 405.301 MHz Type=RS41-SGP ser=U3141504 Radiosonde
PY2PE-11U31415042022-12-07 14:08:17-22.5327-46.55537303897Clb=-1.2m/s t=5.4C h=71.8% p=639.9hPa 405.301 MHz Type=RS41-SGP ser=U3141504 Radiosonde
PY2PE-11U31415042022-12-07 14:07:46-22.5348-46.55748433944Clb=-1.2m/s t=4.9C h=73.2% p=636.0hPa 405.301 MHz Type=RS41-SGP ser=U3141504 Radiosonde
PY2PE-11U31415042022-12-07 14:07:15-22.537-46.559228333989Clb=-1.4m/s t=4.7C h=75.3% p=632.6hPa 405.301 MHz Type=RS41-SGP ser=U3141504 Radiosonde
PY2PE-11U31415042022-12-07 14:06:44-22.5388-46.561160314030Clb=-1.6m/s t=4.3C h=75.0% p=629.5hPa 405.301 MHz Type=RS41-SGP ser=U3141504 Radiosonde
PY2PE-11U31415042022-12-07 14:06:13-22.541-46.563635434079Clb=-1.4m/s t=3.9C h=79.4% p=625.9hPa 405.301 MHz Type=RS41-SGP ser=U3141504 Radiosonde
PY2PE-11U31415042022-12-07 14:05:42-22.543-46.565954304125Clb=-1.6m/s t=3.4C h=84.3% p=622.2hPa 405.301 MHz Type=RS41-SGP ser=U3141504 Radiosonde
PY2PE-11U31415042022-12-07 14:05:11-22.5447-46.568665434179Clb=-1.4m/s t=3.0C h=84.5% p=617.7hPa 405.301 MHz Type=RS41-SGP ser=U3141504 Radiosonde
PY2PE-11U31415042022-12-07 14:04:40-22.5463-46.571858524236Clb=-1.9m/s t=3.2C h=79.1% p=613.3hPa 405.301 MHz Type=RS41-SGP ser=U3141504 Radiosonde
PY2PE-11U31415042022-12-07 14:04:09-22.5481-46.575165354298Clb=-1.8m/s t=3.0C h=72.4% p=608.8hPa 405.301 MHz Type=RS41-SGP ser=U3141504 Radiosonde
PY2PE-11U31415042022-12-07 14:03:38-22.5496-46.578464544365Clb=-2.5m/s t=2.6C h=71.5% p=603.6hPa 405.301 MHz Type=RS41-SGP ser=U3141504 Radiosonde
PY2PE-11U31415042022-12-07 14:03:07-22.5512-46.581755374437Clb=-2.4m/s t=2.1C h=66.3% p=598.3hPa 405.301 MHz Type=RS41-SGP ser=U3141504 Radiosonde
PY2PE-11U31415042022-12-07 14:02:35-22.5526-46.584876434512Clb=-2.6m/s t=1.9C h=60.8% p=592.9hPa 405.301 MHz Type=RS41-SGP ser=U3141504 Radiosonde
PY2PE-11U31415042022-12-07 14:02:04-22.554-46.588258484589Clb=-2.5m/s t=1.6C h=53.3% p=587.2hPa 405.301 MHz Type=RS41-SGP ser=U3141504 Radiosonde
PY2PE-11U31415042022-12-07 14:01:33-22.5555-46.591257314667Clb=-2.6m/s t=1.0C h=56.1% p=581.5hPa 405.301 MHz Type=RS41-SGP ser=U3141504 Radiosonde
PY2PE-11U31415042022-12-07 14:01:02-22.5567-46.594177434742Clb=-2.4m/s t=0.5C h=57.8% p=576.2hPa 405.301 MHz Type=RS41-SGP ser=U3141504 Radiosonde
PY2PE-11U31415042022-12-07 14:00:31-22.5579-46.597460464813Clb=-2.6m/s t=0.1C h=52.0% p=571.1hPa 405.301 MHz Type=RS41-SGP ser=U3141504 Radiosonde
PY2PE-11U31415042022-12-07 14:00:00-22.5594-46.600558334882Clb=-2.0m/s t=-0.4C h=49.9% p=566.1hPa 405.301 MHz Type=RS41-SGP ser=U3141504 Radiosonde
PY2PE-11U31415042022-12-07 13:59:29-22.5607-46.603577414945Clb=-2.0m/s t=-0.8C h=49.6% p=561.7hPa 405.301 MHz Type=RS41-SGP ser=U3141504 Radiosonde
PY2PE-11U31415042022-12-07 13:58:58-22.5619-46.606758445005Clb=-2.0m/s t=-1.2C h=44.3% p=557.6hPa 405.301 MHz Type=RS41-SGP ser=U3141504 Radiosonde
PY2PE-11U31415042022-12-07 13:58:27-22.5633-46.609455305061Clb=-2.0m/s t=-1.5C h=43.8% p=553.7hPa 405.301 MHz Type=RS41-SGP ser=U3141504 Radiosonde
PY2PE-11U31415042022-12-07 13:57:56-22.5645-46.612173375115Clb=-1.6m/s t=-1.9C h=44.1% p=550.0hPa 405.301 MHz Type=RS41-SGP ser=U3141504 Radiosonde
PY2PE-11U31415042022-12-07 13:57:25-22.5659-46.615261465165Clb=-1.5m/s t=-2.2C h=55.5% p=546.5hPa 405.301 MHz Type=RS41-SGP ser=U3141504 Radiosonde
PY2PE-11U31415042022-12-07 13:56:54-22.5676-46.618348465212Clb=-1.5m/s t=-2.3C h=58.6% p=543.2hPa 405.301 MHz Type=RS41-SGP ser=U3141504 Radiosonde
PY2PE-11U31415042022-12-07 13:56:24-22.5694-46.621467375259Clb=-1.7m/s t=-2.2C h=38.7% p=540.0hPa 405.301 MHz Type=RS41-SGP ser=U3141504 Radiosonde
PY2PE-11U31415042022-12-07 13:55:52-22.571-46.624666525305Clb=-1.8m/s t=-2.8C h=40.2% p=536.4hPa 405.301 MHz Type=RS41-SGP ser=U3141504 Radiosonde
PY2PE-11U31415042022-12-07 13:55:21-22.5721-46.627780435359Clb=-2.2m/s t=-3.1C h=39.7% p=532.9hPa 405.301 MHz Type=RS41-SGP ser=U3141504 Radiosonde
PY2PE-11U31415042022-12-07 13:54:50-22.5732-46.631362435409Clb=-1.9m/s t=-3.3C h=34.0% p=529.5hPa 405.301 MHz Type=RS41-SGP ser=U3141504 Radiosonde
PY2PE-11U31415042022-12-07 13:54:19-22.5741-46.634680375464Clb=-2.2m/s t=-3.7C h=37.0% p=525.8hPa 405.301 MHz Type=RS41-SGP ser=U3141504 Radiosonde
PY2PE-11U31415042022-12-07 13:53:48-22.5747-46.638276485521Clb=-2.1m/s t=-3.9C h=35.8% p=522.1hPa 405.301 MHz Type=RS41-SGP ser=U3141504 Radiosonde
PY2PE-11U31415042022-12-07 13:53:16-22.5759-46.641766505585Clb=-2.5m/s t=-4.1C h=41.2% p=517.9hPa 405.301 MHz Type=RS41-SGP ser=U3141504 Radiosonde
PY2PE-11U31415042022-12-07 13:52:45-22.5771-46.645162355654Clb=-2.5m/s t=-4.6C h=39.3% p=513.4hPa 405.301 MHz Type=RS41-SGP ser=U3141504 Radiosonde
PY2PE-11U31415042022-12-07 13:52:14-22.5782-46.648475485724Clb=-2.5m/s t=-5.3C h=41.0% p=508.9hPa 405.301 MHz Type=RS41-SGP ser=U3141504 Radiosonde
PY2PE-11U31415042022-12-07 13:51:43-22.5797-46.651756445792Clb=-2.5m/s t=-5.9C h=43.7% p=504.4hPa 405.301 MHz Type=RS41-SGP ser=U3141504 Radiosonde
PY2PE-11U31415042022-12-07 13:51:12-22.5808-46.654658375860Clb=-2.4m/s t=-6.2C h=44.5% p=500.1hPa 405.301 MHz Type=RS41-SGP ser=U3141504 Radiosonde
PY2PE-11U31415042022-12-07 13:50:41-22.5817-46.657567305929Clb=-2.6m/s t=-6.7C h=47.3% p=495.8hPa 405.301 MHz Type=RS41-SGP ser=U3141504 Radiosonde
PY2PE-11U31415042022-12-07 13:50:06-22.5824-46.660883436010Clb=-2.8m/s t=-7.0C h=43.0% p=490.7hPa 405.301 MHz Type=RS41-SGP ser=U3141504 Radiosonde
PY2PE-11U31415042022-12-07 13:49:35-22.5833-46.66466436082Clb=-2.8m/s t=-7.4C h=29.7% p=486.1hPa 405.301 MHz Type=RS41-SGP ser=U3141504 Radiosonde
PY2PE-11U31415042022-12-07 13:49:04-22.5845-46.667362466162Clb=-2.6m/s t=-8.0C h=34.4% p=481.3hPa 405.301 MHz Type=RS41-SGP ser=U3141504 Radiosonde
PY2PE-11U31415042022-12-07 13:48:33-22.5859-46.670460356234Clb=-2.8m/s t=-8.2C h=27.1% p=476.7hPa 405.301 MHz Type=RS41-SGP ser=U3141504 Radiosonde
PY2PE-11U31415042022-12-07 13:48:02-22.5873-46.67461506312Clb=-3.0m/s t=-8.9C h=30.4% p=472.0hPa 405.301 MHz Type=RS41-SGP ser=U3141504 Radiosonde
PY2PE-11U31415042022-12-07 13:47:31-22.5891-46.677653466397Clb=-2.9m/s t=-9.1C h=16.2% p=467.1hPa 405.301 MHz Type=RS41-SGP ser=U3141504 Radiosonde
PY2PE-11U31415042022-12-07 13:47:00-22.5909-46.680546446474Clb=-2.5m/s t=-9.8C h=23.8% p=462.2hPa 405.301 MHz Type=RS41-SGP ser=U3141504 Radiosonde
PY2PE-11U31415042022-12-07 13:46:29-22.5931-46.683540396551Clb=-2.8m/s t=-10.5C h=32.0% p=457.6hPa 405.301 MHz Type=RS41-SGP ser=U3141504 Radiosonde
PY2PE-11U31415042022-12-07 13:45:58-22.5956-46.685734436632Clb=-2.9m/s t=-11.0C h=37.4% p=453.0hPa 405.301 MHz Type=RS41-SGP ser=U3141504 Radiosonde
PY2PE-11U31415042022-12-07 13:45:27-22.5982-46.687837466705Clb=-2.5m/s t=-11.4C h=34.6% p=448.8hPa 405.301 MHz Type=RS41-SGP ser=U3141504 Radiosonde
PY2PE-11U31415042022-12-07 13:44:56-22.6014-46.689525356779Clb=-2.8m/s t=-11.9C h=22.4% p=444.5hPa 405.301 MHz Type=RS41-SGP ser=U3141504 Radiosonde
PY2PE-11U31415042022-12-07 13:44:25-22.6042-46.691227336849Clb=-2.3m/s t=-12.4C h=43.1% p=440.5hPa 405.301 MHz Type=RS41-SGP ser=U3141504 Radiosonde
PY2PE-11U31415042022-12-07 13:43:54-22.6066-46.693443506925Clb=-3.3m/s t=-12.9C h=55.1% p=436.5hPa 405.301 MHz Type=RS41-SGP ser=U3141504 Radiosonde
PY2PE-11U31415042022-12-07 13:43:23-22.61-46.696734637016Clb=-2.6m/s t=-13.5C h=58.1% p=431.6hPa 405.301 MHz Type=RS41-SGP ser=U3141504 Radiosonde
PY2PE-11U31415042022-12-07 13:42:52-22.6134-46.699628567109Clb=-2.9m/s t=-13.7C h=44.7% p=426.3hPa 405.301 MHz Type=RS41-SGP ser=U3141504 Radiosonde
PY2PE-11U31415042022-12-07 13:42:20-22.6168-46.702234437186Clb=-2.4m/s t=-14.4C h=71.0% p=421.9hPa 405.301 MHz Type=RS41-SGP ser=U3141504 Radiosonde
PY2PE-11U31415042022-12-07 13:41:49-22.6199-46.704633397272Clb=-2.8m/s t=-15.0C h=73.8% p=417.2hPa 405.301 MHz Type=RS41-SGP ser=U3141504 Radiosonde
PY2PE-11U31415042022-12-07 13:41:18-22.6232-46.70717437363Clb=-2.4m/s t=-15.5C h=69.3% p=412.1hPa 405.301 MHz Type=RS41-SGP ser=U3141504 Radiosonde
PY2PE-11U31415042022-12-07 13:40:47-22.6268-46.709220617439Clb=-3.0m/s t=-15.9C h=59.7% p=407.8hPa 405.301 MHz Type=RS41-SGP ser=U3141504 Radiosonde
PY2PE-11U31415042022-12-07 13:40:16-22.6308-46.711723677513Clb=-1.8m/s t=-16.4C h=54.9% p=403.9hPa 405.301 MHz Type=RS41-SGP ser=U3141504 Radiosonde
PY2PE-11U31415042022-12-07 13:39:45-22.6353-46.71424747596Clb=-2.9m/s t=-16.7C h=21.1% p=399.5hPa 405.301 MHz Type=RS41-SGP ser=U3141504 Radiosonde
PY2PE-11U31415042022-12-07 13:39:14-22.6402-46.716316697680Clb=-2.5m/s t=-17.2C h=5.7% p=395.3hPa 405.301 MHz Type=RS41-SGP ser=U3141504 Radiosonde
PY2PE-11U31415042022-12-07 13:38:43-22.645-46.718222597758Clb=-2.6m/s t=-17.9C h=2.8% p=391.1hPa 405.301 MHz Type=RS41-SGP ser=U3141504 Radiosonde
PU2YGG-11U31415042022-12-07 13:38:24-22.6481-46.719817767814Clb=-3.3m/s t=-18.3C h=1.6% p=388.3hPa 405.300 MHz Type=RS41-SGP ser=U3141504 Radiosonde
PY2PE-11U31415042022-12-07 13:38:12-22.6502-46.720530657855Clb=-2.8m/s t=-18.5C h=1.5% p=386.1hPa 405.301 MHz Type=RS41-SGP ser=U3141504 Radiosonde
PY2PE-11U31415042022-12-07 13:37:41-22.655-46.722726787953Clb=-3.0m/s t=-19.2C h=1.4% p=380.8hPa 405.301 MHz Type=RS41-SGP ser=U3141504 Radiosonde
PU2YGG-11U31415042022-12-07 13:37:22-22.6582-46.724227788013Clb=-2.8m/s t=-19.4C h=1.4% p=377.8hPa 405.300 MHz Type=RS41-SGP ser=U3141504 Radiosonde
PY2PE-11U31415042022-12-07 13:37:10-22.6601-46.724914638045Clb=-2.8m/s t=-19.6C h=1.3% p=376.2hPa 405.301 MHz Type=RS41-SGP ser=U3141504 Radiosonde
PY2PE-11U31415042022-12-07 13:36:39-22.6654-46.727225788140Clb=-2.7m/s t=-20.0C h=1.1% p=371.5hPa 405.301 MHz Type=RS41-SGP ser=U3141504 Radiosonde
PU2YGG-11U31415042022-12-07 13:36:20-22.6686-46.728427638198Clb=-2.5m/s t=-20.2C h=1.0% p=368.7hPa 405.300 MHz Type=RS41-SGP ser=U3141504 Radiosonde
PY2PE-11U31415042022-12-07 13:36:08-22.6707-46.729516768231Clb=-2.2m/s t=-20.2C h=1.0% p=367.0hPa 405.301 MHz Type=RS41-SGP ser=U3141504 Radiosonde
PY2PE-11U31415042022-12-07 13:35:37-22.6757-46.731319598315Clb=-2.4m/s t=-20.5C h=0.8% p=362.7hPa 405.301 MHz Type=RS41-SGP ser=U3141504 Radiosonde
PU2YGG-11U31415042022-12-07 13:35:18-22.6789-46.73277728370Clb=-2.1m/s t=-20.7C h=0.7% p=360.2hPa 405.301 MHz Type=RS41-SGP ser=U3141504 Radiosonde
PY2PE-11U31415042022-12-07 13:35:06-22.6808-46.733323768400Clb=-2.4m/s t=-20.8C h=0.7% p=358.8hPa 405.301 MHz Type=RS41-SGP ser=U3141504 Radiosonde
PY2PE-11U31415042022-12-07 13:34:35-22.6865-46.73510818479Clb=-2.2m/s t=-21.3C h=0.7% p=354.9hPa 405.301 MHz Type=RS41-SGP ser=U3141504 Radiosonde
PU2YGG-11U31415042022-12-07 13:34:16-22.6899-46.73612838527Clb=-1.1m/s t=-21.7C h=0.7% p=352.6hPa 405.301 MHz Type=RS41-SGP ser=U3141504 Radiosonde
PY2PE-11U31415042022-12-07 13:34:04-22.6921-46.736420678551Clb=-1.9m/s t=-22.0C h=0.7% p=351.3hPa 405.301 MHz Type=RS41-SGP ser=U3141504 Radiosonde
PY2PE-11U31415042022-12-07 13:33:33-22.6977-46.738320858619Clb=-1.9m/s t=-22.7C h=0.8% p=347.8hPa 405.301 MHz Type=RS41-SGP ser=U3141504 Radiosonde
PU2YGG-11U31415042022-12-07 13:33:14-22.7014-46.739324818664Clb=-1.8m/s t=-23.1C h=0.8% p=345.9hPa 405.301 MHz Type=RS41-SGP ser=U3141504 Radiosonde
PY2PE-11U31415042022-12-07 13:33:02-22.7039-46.740312948691Clb=-2.1m/s t=-23.3C h=0.8% p=344.5hPa 405.301 MHz Type=RS41-SGP ser=U3141504 Radiosonde
PY2PE-11U31415042022-12-07 13:32:30-22.7106-46.741914788759Clb=-1.9m/s t=-23.1C h=0.8% p=341.3hPa 405.301 MHz Type=RS41-SGP ser=U3141504 Radiosonde
PU2YGG-11U31415042022-12-07 13:32:12-22.7148-46.74295818801Clb=-2.2m/s t=-23.3C h=1.0% p=339.4hPa 405.301 MHz Type=RS41-SGP ser=U3141504 Radiosonde
PY2PE-11U31415042022-12-07 13:31:59-22.7174-46.743711988825Clb=-2.2m/s t=-23.5C h=1.0% p=338.3hPa 405.301 MHz Type=RS41-SGP ser=U3141504 Radiosonde
PY2PE-11U31415042022-12-07 13:31:28-22.7241-46.74514788890Clb=-2.1m/s t=-24.0C h=1.1% p=335.4hPa 405.301 MHz Type=RS41-SGP ser=U3141504 Radiosonde
PU2YGG-11U31415042022-12-07 13:31:10-22.7281-46.745913768930Clb=-2.0m/s t=-24.3C h=1.2% p=333.6hPa 405.301 MHz Type=RS41-SGP ser=U3141504 Radiosonde
PY2PE-11U31415042022-12-07 13:30:57-22.7308-46.74666948956Clb=-2.3m/s t=-24.6C h=1.2% p=332.4hPa 405.301 MHz Type=RS41-SGP ser=U3141504 Radiosonde
PU2YGG-11U31415042022-12-07 13:30:38-22.7351-46.74767968999Clb=-2.0m/s t=-25.0C h=1.3% p=330.4hPa 405.301 MHz Type=RS41-SGP ser=U3141504 Radiosonde
PY2PE-11U31415042022-12-07 13:30:26-22.7375-46.74816879025Clb=-2.3m/s t=-25.2C h=1.5% p=329.3hPa 405.301 MHz Type=RS41-SGP ser=U3141504 Radiosonde
PU2YGG-11U31415042022-12-07 13:30:08-22.7421-46.748915899072Clb=-2.0m/s t=-25.6C h=1.7% p=327.1hPa 405.301 MHz Type=RS41-SGP ser=U3141504 Radiosonde
PY2PE-11U31415042022-12-07 13:29:55-22.7448-46.749651029098Clb=-2.5m/s t=-25.8C h=1.7% p=325.9hPa 405.301 MHz Type=RS41-SGP ser=U3141504 Radiosonde
PU2YGG-11U31415042022-12-07 13:29:36-22.7495-46.750541029150Clb=-2.3m/s t=-26.3C h=2.2% p=323.6hPa 405.301 MHz Type=RS41-SGP ser=U3141504 Radiosonde
PY2PE-11U31415042022-12-07 13:29:24-22.7521-46.7509141009177Clb=-2.3m/s t=-26.5C h=2.6% p=322.4hPa 405.301 MHz Type=RS41-SGP ser=U3141504 Radiosonde
PY2PE-11U31415042022-12-07 13:28:53-22.7598-46.752331029261Clb=-2.8m/s t=-27.3C h=3.4% p=318.7hPa 405.301 MHz Type=RS41-SGP ser=U3141504 Radiosonde
PU2YGG-11U31415042022-12-07 13:28:34-22.7647-46.753371099320Clb=-2.5m/s t=-27.8C h=4.1% p=316.2hPa 405.301 MHz Type=RS41-SGP ser=U3141504 Radiosonde
PY2PE-11U31415042022-12-07 13:28:22-22.7676-46.753816989351Clb=-2.8m/s t=-28.1C h=4.5% p=314.7hPa 405.301 MHz Type=RS41-SGP ser=U3141504 Radiosonde
PY2GN-4U31415042022-12-07 13:28:00-22.7732-46.7549161069413Clb=-2.9m/s t=-28.7C h=4.9% p=311.9hPa 405.301 MHz Type=RS41-SGP ser=U3141504 Radiosonde auto_rx v1.5.8
PY2PE-11U31415042022-12-07 13:27:51-22.7754-46.75524949433Clb=-2.4m/s t=-28.9C h=5.2% p=311.1hPa 405.301 MHz Type=RS41-SGP ser=U3141504 Radiosonde
PU2YGG-11U31415042022-12-07 13:27:32-22.78-46.756251049484Clb=-2.9m/s t=-29.3C h=5.5% p=308.8hPa 405.301 MHz Type=RS41-SGP ser=U3141504 Radiosonde
PY2GN-4U31415042022-12-07 13:27:30-22.7804-46.75635949489Clb=-2.5m/s t=-29.4C h=5.6% p=308.6hPa 405.301 MHz Type=RS41-SGP ser=U3141504 Radiosonde auto_rx v1.5.8
PY2PE-11U31415042022-12-07 13:27:20-22.7827-46.7569181049516Clb=-2.9m/s t=-29.6C h=5.7% p=307.5hPa 405.301 MHz Type=RS41-SGP ser=U3141504 Radiosonde
PY2GN-4U31415042022-12-07 13:27:00-22.7875-46.75818969571Clb=-2.7m/s t=-30.1C h=6.0% p=305.2hPa 405.301 MHz Type=RS41-SGP ser=U3141504 Radiosonde auto_rx v1.5.8
PY2PE-11U31415042022-12-07 13:26:49-22.7903-46.75877919597Clb=-2.5m/s t=-30.3C h=6.6% p=304.1hPa 405.301 MHz Type=RS41-SGP ser=U3141504 Radiosonde
PU2YGG-11U31415042022-12-07 13:26:30-22.7948-46.75998949646Clb=-2.1m/s t=-30.7C h=7.0% p=302.0hPa 405.301 MHz Type=RS41-SGP ser=U3141504 Radiosonde
PY2PE-11U31415042022-12-07 13:26:18-22.7974-46.7608191029676Clb=-2.3m/s t=-30.9C h=7.2% p=300.7hPa 405.301 MHz Type=RS41-SGP ser=U3141504 Radiosonde
PY2GN-4U31415042022-12-07 13:26:00-22.8017-46.762122989725Clb=-2.9m/s t=-31.4C h=7.4% p=298.8hPa 405.301 MHz Type=RS41-SGP ser=U3141504 Radiosonde auto_rx v1.5.8
PY2PE-11U31415042022-12-07 13:25:47-22.805-46.763113939759Clb=-2.5m/s t=-31.6C h=7.3% p=297.3hPa 405.301 MHz Type=RS41-SGP ser=U3141504 Radiosonde
PY2GN-4U31415042022-12-07 13:25:30-22.8089-46.7646111029803Clb=-2.9m/s t=-32.0C h=8.0% p=295.4hPa 405.301 MHz Type=RS41-SGP ser=U3141504 Radiosonde auto_rx v1.5.8
PU2YGG-11U31415042022-12-07 13:25:28-22.8094-46.764713949808Clb=-2.6m/s t=-32.0C h=8.1% p=295.2hPa 405.301 MHz Type=RS41-SGP ser=U3141504 Radiosonde
PY2PE-11U31415042022-12-07 13:25:16-22.812-46.7658261009840Clb=-2.8m/s t=-32.3C h=8.2% p=293.8hPa 405.301 MHz Type=RS41-SGP ser=U3141504 Radiosonde
PY2GN-4U31415042022-12-07 13:25:00-22.8157-46.767124919886Clb=-2.6m/s t=-32.6C h=8.5% p=292.1hPa 405.301 MHz Type=RS41-SGP ser=U3141504 Radiosonde auto_rx v1.5.8
PY2PE-11U31415042022-12-07 13:24:45-22.8194-46.7687171099925Clb=-3.3m/s t=-32.8C h=8.9% p=290.4hPa 405.301 MHz Type=RS41-SGP ser=U3141504 Radiosonde
PY2GN-4U31415042022-12-07 13:24:30-22.823-46.7699211079966Clb=-2.7m/s t=-32.8C h=7.7% p=288.8hPa 405.301 MHz Type=RS41-SGP ser=U3141504 Radiosonde auto_rx v1.5.8
PU2YGG-11U31415042022-12-07 13:24:26-22.824-46.7703191119977Clb=-2.7m/s t=-32.8C h=7.6% p=288.3hPa 405.301 MHz Type=RS41-SGP ser=U3141504 Radiosonde
PY2PE-11U31415042022-12-07 13:24:14-22.8273-46.7712910210011Clb=-2.7m/s t=-33.1C h=7.1% p=286.9hPa 405.301 MHz Type=RS41-SGP ser=U3141504 Radiosonde
PY2GN-4U31415042022-12-07 13:24:00-22.8307-46.77241711710050Clb=-2.9m/s t=-33.2C h=-1.0% p=285.4hPa 405.301 MHz Type=RS41-SGP ser=U3141504 Radiosonde auto_rx v1.5.8
PY2PE-11U31415042022-12-07 13:23:43-22.8353-46.77361910910099Clb=-2.8m/s t=-33.7C h=7.2% p=283.3hPa 405.301 MHz Type=RS41-SGP ser=U3141504 Radiosonde
PU2YGG-11U31415042022-12-07 13:23:24-22.8405-46.77481410210155Clb=-2.9m/s t=-34.1C h=7.1% p=281.0hPa 405.301 MHz Type=RS41-SGP ser=U3141504 Radiosonde
PY2PE-11U31415042022-12-07 13:23:12-22.844-46.77591112410190Clb=-2.9m/s t=-34.2C h=7.0% p=279.7hPa 405.301 MHz Type=RS41-SGP ser=U3141504 Radiosonde
PU2YGG-11U31415042022-12-07 13:22:52-22.8492-46.77711512410247Clb=-3.1m/s t=-34.7C h=6.7% p=277.4hPa 405.301 MHz Type=RS41-SGP ser=U3141504 Radiosonde
PY2PE-11U31415042022-12-07 13:22:40-22.8527-46.77781310410284Clb=-3.2m/s t=-35.1C h=6.7% p=276.0hPa 405.301 MHz Type=RS41-SGP ser=U3141504 Radiosonde
PY2PE-11U31415042022-12-07 13:22:09-22.8613-46.78041812410378Clb=-3.1m/s t=-35.8C h=7.3% p=272.2hPa 405.301 MHz Type=RS41-SGP ser=U3141504 Radiosonde
PY2GN-4U31415042022-12-07 13:22:00-22.8644-46.7811911110408Clb=-2.9m/s t=-36.1C h=-1.0% p=271.1hPa 405.301 MHz Type=RS41-SGP ser=U3141504 Radiosonde auto_rx v1.5.8
PU2YGG-11U31415042022-12-07 13:21:50-22.867-46.7822111910438Clb=-3.0m/s t=-36.2C h=8.3% p=269.9hPa 405.301 MHz Type=RS41-SGP ser=U3141504 Radiosonde
PY2PE-11U31415042022-12-07 13:21:38-22.8703-46.7831011310470Clb=-2.9m/s t=-36.7C h=8.8% p=268.6hPa 405.301 MHz Type=RS41-SGP ser=U3141504 Radiosonde
PY2GN-4U31415042022-12-07 13:21:30-22.8727-46.78372111510496Clb=-2.9m/s t=-36.8C h=-1.0% p=267.6hPa 405.301 MHz Type=RS41-SGP ser=U3141504 Radiosonde auto_rx v1.5.8
PY2PE-11U31415042022-12-07 13:21:07-22.8791-46.78572111910561Clb=-3.0m/s t=-37.4C h=9.3% p=265.1hPa 405.301 MHz Type=RS41-SGP ser=U3141504 Radiosonde
PY2GN-4U31415042022-12-07 13:21:00-22.8825-46.78691112610593Clb=-2.8m/s t=-273.0C h=-1.0% p=-1.0hPa 405.301 MHz Type=RS41 ser=U3141504 Radiosonde auto_rx v1.5.8
PU2YGG-11U31415042022-12-07 13:20:48-22.885-46.78751911310619Clb=-2.9m/s t=-37.8C h=9.3% p=262.9hPa 405.301 MHz Type=RS41-SGP ser=U3141504 Radiosonde
PY2PE-11U31415042022-12-07 13:20:37-22.8883-46.78871313310649Clb=-3.0m/s t=-38.1C h=10.4% p=261.8hPa 405.301 MHz Type=RS41-SGP ser=U3141504 Radiosonde
PY2GN-4U31415042022-12-07 13:20:30-22.8967-46.7911211310730Clb=-2.9m/s t=-273.0C h=-1.0% p=-1.0hPa 405.301 MHz Type=RS41 ser=U3141504 Radiosonde auto_rx v1.5.8
PY2PE-11U31415042022-12-07 13:20:07-22.8976-46.79121811310738Clb=-3.0m/s t=-38.9C h=12.5% p=258.3hPa 405.301 MHz Type=RS41-SGP ser=U3141504 Radiosonde
PU2YGG-11U31415042022-12-07 13:19:46-22.9036-46.79311411110797Clb=-3.1m/s t=-39.5C h=12.6% p=256.2hPa 405.301 MHz Type=RS41-SGP ser=U3141504 Radiosonde
PY2PE-11U31415042022-12-07 13:19:34-22.9069-46.79431513510829Clb=-3.0m/s t=-39.6C h=13.1% p=254.9hPa 405.301 MHz Type=RS41-SGP ser=U3141504 Radiosonde
PY2PE-11U31415042022-12-07 13:19:03-22.9163-46.79691211310924Clb=-3.1m/s t=-40.6C h=13.4% p=251.4hPa 405.301 MHz Type=RS41-SGP ser=U3141504 Radiosonde
PU2YGG-11U31415042022-12-07 13:18:44-22.9223-46.79871011710987Clb=-3.3m/s t=-41.2C h=13.9% p=249.1hPa 405.301 MHz Type=RS41-SGP ser=U3141504 Radiosonde
PY2PE-11U31415042022-12-07 13:18:32-22.9254-46.79982013011023Clb=-3.6m/s t=-41.4C h=13.6% p=247.8hPa 405.301 MHz Type=RS41-SGP ser=U3141504 Radiosonde
PY2PE-11U31415042022-12-07 13:18:02-22.9347-46.80271111511126Clb=-3.4m/s t=-42.3C h=14.3% p=244.1hPa 405.301 MHz Type=RS41-SGP ser=U3141504 Radiosonde
PY2GN-4U31415042022-12-07 13:18:00-22.939-46.80421613311175Clb=-3.5m/s t=-42.7C h=14.4% p=242.3hPa 405.301 MHz Type=RS41-SGP ser=U3141504 Radiosonde auto_rx v1.5.8
PU2YGG-11U31415042022-12-07 13:17:42-22.9405-46.80461112011192Clb=-3.3m/s t=-42.9C h=14.4% p=241.7hPa 405.301 MHz Type=RS41-SGP ser=U3141504 Radiosonde
PY2PE-11U31415042022-12-07 13:17:31-22.9435-46.80562312011229Clb=-3.6m/s t=-43.2C h=14.0% p=240.4hPa 405.301 MHz Type=RS41-SGP ser=U3141504 Radiosonde
PY2GN-4U31415042022-12-07 13:17:30-22.9441-46.80592112811236Clb=-3.5m/s t=-43.2C h=14.3% p=240.1hPa 405.301 MHz Type=RS41-SGP ser=U3141504 Radiosonde auto_rx v1.5.8
PY2PE-11U31415042022-12-07 13:16:59-22.9527-46.80891312011339Clb=-3.4m/s t=-44.1C h=13.7% p=236.5hPa 405.301 MHz Type=RS41-SGP ser=U3141504 Radiosonde
PU2YGG-11U31415042022-12-07 13:16:40-22.9578-46.8111813011405Clb=-3.2m/s t=-44.5C h=14.5% p=234.2hPa 405.301 MHz Type=RS41-SGP ser=U3141504 Radiosonde
PY2GN-4U31415042022-12-07 13:16:31-22.9606-46.81192110411439Clb=-3.5m/s t=-44.8C h=14.2% p=233.0hPa 405.301 MHz Type=RS41-SGP ser=U3141504 Radiosonde auto_rx v1.5.8
PY2PE-11U31415042022-12-07 13:16:28-22.9609-46.8122310611443Clb=-3.5m/s t=-44.8C h=14.2% p=232.9hPa 405.301 MHz Type=RS41-SGP ser=U3141504 Radiosonde
PY2GN-4U31415042022-12-07 13:16:00-22.9687-46.8152312011546Clb=-3.5m/s t=-45.4C h=12.2% p=229.4hPa 405.301 MHz Type=RS41-SGP ser=U3141504 Radiosonde auto_rx v1.5.8
PY2PE-11U31415042022-12-07 13:15:57-22.9696-46.81531912411556Clb=-3.5m/s t=-45.6C h=11.9% p=229.0hPa 405.301 MHz Type=RS41-SGP ser=U3141504 Radiosonde
PU2YGG-11U31415042022-12-07 13:15:38-22.9744-46.8172510911625Clb=-3.6m/s t=-45.8C h=10.8% p=226.6hPa 405.301 MHz Type=RS41-SGP ser=U3141504 Radiosonde
PY2GN-4U31415042022-12-07 13:15:30-22.9766-46.81791411111654Clb=-3.6m/s t=-46.1C h=10.6% p=225.7hPa 405.301 MHz Type=RS41-SGP ser=U3141504 Radiosonde auto_rx v1.5.8
PY2PE-11U31415042022-12-07 13:15:26-22.9777-46.8181149811668Clb=-3.5m/s t=-46.0C h=10.0% p=225.2hPa 405.301 MHz Type=RS41-SGP ser=U3141504 Radiosonde
PY2GN-4U31415042022-12-07 13:15:00-22.9838-46.8206208911763Clb=-3.7m/s t=-46.5C h=9.0% p=222.0hPa 405.301 MHz Type=RS41-SGP ser=U3141504 Radiosonde auto_rx v1.5.8
PY2PE-11U31415042022-12-07 13:14:55-22.9849-46.8212299411781Clb=-3.5m/s t=-46.6C h=8.6% p=221.3hPa 405.301 MHz Type=RS41-SGP ser=U3141504 Radiosonde
PY2GN-4U31415042022-12-07 13:14:30-22.9905-46.8243110411870Clb=-3.8m/s t=-47.4C h=-1.0% p=218.4hPa 405.300 MHz Type=RS41-SGP ser=U3141504 Radiosonde auto_rx v1.5.8
PY2PE-11U31415042022-12-07 13:14:24-22.992-46.82471910611892Clb=-3.5m/s t=-47.8C h=9.1% p=217.7hPa 405.301 MHz Type=RS41-SGP ser=U3141504 Radiosonde
PU2YGG-11U31415042022-12-07 13:14:04-22.9963-46.82692010211962Clb=-3.3m/s t=-48.4C h=8.1% p=215.4hPa 405.301 MHz Type=RS41-SGP ser=U3141504 Radiosonde
PY2GN-4U31415042022-12-07 13:14:00-22.9972-46.8272169111976Clb=-3.7m/s t=-48.3C h=-1.0% p=214.9hPa 405.301 MHz Type=RS41-SGP ser=U3141504 Radiosonde auto_rx v1.5.8
PY2PE-11U31415042022-12-07 13:13:53-22.9986-46.8278257812003Clb=-3.8m/s t=-48.5C h=6.0% p=214.0hPa 405.301 MHz Type=RS41-SGP ser=U3141504 Radiosonde
PY2GN-4U31415042022-12-07 13:13:52-23.0034-46.83288012084Clb=-3.8m/s t=-273.0C h=-1.0% p=-1.0hPa 405.301 MHz Type=RS41-SGP ser=U3141504 Radiosonde auto_rx v1.5.8
PY2PE-11U31415042022-12-07 13:13:51-23.005-46.8312310212112Clb=-3.6m/s t=-48.9C h=6.4% p=210.5hPa 405.301 MHz Type=RS41-SGP ser=U3141504 Radiosonde
PU2YGG-11U31415042022-12-07 13:13:02-23.0092-46.83282510212182Clb=-3.5m/s t=-49.5C h=6.9% p=208.3hPa 405.301 MHz Type=RS41-SGP ser=U3141504 Radiosonde
PU2YGG-11U31415042022-12-07 13:12:00-23.0229-46.8375249812398Clb=-3.5m/s t=-51.4C h=8.0% p=201.5hPa 405.301 MHz Type=RS41-SGP ser=U3141504 Radiosonde
PU2YGG-11U31415042022-12-07 13:10:58-23.0371-46.842198112615Clb=-3.5m/s t=-52.9C h=7.4% p=194.9hPa 405.300 MHz Type=RS41-SGP ser=U3141504 Radiosonde
PU2YGG-11U31415042022-12-07 13:09:56-23.051-46.844717612835Clb=-3.6m/s t=-54.1C h=6.3% p=188.3hPa 405.301 MHz Type=RS41-SGP ser=U3141504 Radiosonde
PU2YGG-11U31415042022-12-07 13:08:54-23.0628-46.846818113059Clb=-3.6m/s t=-55.5C h=5.8% p=181.8hPa 405.301 MHz Type=RS41-SGP ser=U3141504 Radiosonde
PU2YGG-11U31415042022-12-07 13:07:52-23.074-46.847938513288Clb=-3.5m/s t=-57.2C h=7.6% p=175.5hPa 405.301 MHz Type=RS41-SGP ser=U3141504 Radiosonde
PU2YGG-11U31415042022-12-07 13:06:50-23.0856-46.848198313514Clb=-3.8m/s t=-59.1C h=8.8% p=169.3hPa 405.300 MHz Type=RS41-SGP ser=U3141504 Radiosonde
PU2YGG-11U31415042022-12-07 13:05:16-23.1035-46.8473508013856Clb=-3.7m/s t=-61.8C h=9.4% p=160.3hPa 405.301 MHz Type=RS41-SGP ser=U3141504 Radiosonde
PU2YGG-11U31415042022-12-07 13:04:14-23.1129-46.8459115614087Clb=-4.1m/s t=-62.8C h=9.7% p=154.4hPa 405.300 MHz Type=RS41-SGP ser=U3141504 Radiosonde
PU2YGG-11U31415042022-12-07 13:03:12-23.1217-46.84463453714334Clb=-4.2m/s t=-64.2C h=8.7% p=148.3hPa 405.300 MHz Type=RS41-SGP ser=U3141504 Radiosonde
PU2YGG-11U31415042022-12-07 13:02:10-23.1299-46.84323374314590Clb=-4.4m/s t=-66.0C h=7.4% p=142.2hPa 405.300 MHz Type=RS41-SGP ser=U3141504 Radiosonde
PU2YGG-11U31415042022-12-07 13:01:08-23.1379-46.84083376714844Clb=-3.9m/s t=-66.9C h=7.5% p=136.4hPa 405.300 MHz Type=RS41-SGP ser=U3141504 Radiosonde
PY2GN-4U31415042022-12-07 13:00:53-23.1423-46.8373104115002Clb=-4.4m/s t=-66.9C h=6.9% p=132.8hPa 405.301 MHz Type=RS41-SGP ser=U3141504 Radiosonde auto_rx v1.5.8
PY2PE-11U31415042022-12-07 13:00:44-23.1427-46.83673335715022Clb=-3.8m/s t=-67.3C h=7.5% p=132.4hPa 405.301 MHz Type=RS41-SGP ser=U3141504 Radiosonde
PU2YGG-11U31415042022-12-07 13:00:06-23.1448-46.83443214315102Clb=-3.9m/s t=-67.6C h=7.7% p=130.7hPa 405.300 MHz Type=RS41-SGP ser=U3141504 Radiosonde
PY2GN-4U31415042022-12-07 13:00:00-23.1457-46.83383247415131Clb=-4.4m/s t=-67.6C h=7.1% p=130.1hPa 405.301 MHz Type=RS41-SGP ser=U3141504 Radiosonde auto_rx v1.5.8
PY2PE-11U31415042022-12-07 12:59:54-23.1464-46.83313077215152Clb=-4.0m/s t=-68.1C h=7.3% p=129.6hPa 405.301 MHz Type=RS41-SGP ser=U3141504 Radiosonde
PY2GN-4U31415042022-12-07 12:59:30-23.1489-46.83042975915252Clb=-4.3m/s t=-68.6C h=7.3% p=127.4hPa 405.301 MHz Type=RS41-SGP ser=U3141504 Radiosonde auto_rx v1.5.8
PY2PE-11U31415042022-12-07 12:59:23-23.1493-46.82963244615282Clb=-4.2m/s t=-69.0C h=8.5% p=126.8hPa 405.301 MHz Type=RS41-SGP ser=U3141504 Radiosonde
PY2GN-4U31415042022-12-07 12:59:00-23.1516-46.82683245915378Clb=-4.3m/s t=-69.3C h=-1.0% p=124.8hPa 405.301 MHz Type=RS41-SGP ser=U3141504 Radiosonde auto_rx v1.5.8
PY2PE-11U31415042022-12-07 12:58:52-23.1526-46.82573017615411Clb=-4.4m/s t=-69.4C h=7.5% p=124.1hPa 405.301 MHz Type=RS41-SGP ser=U3141504 Radiosonde
PU2YGG-11U31415042022-12-07 12:58:32-23.1544-46.82333077815491Clb=-4.5m/s t=-69.8C h=8.8% p=122.4hPa 405.300 MHz Type=RS41-SGP ser=U3141504 Radiosonde
PY2GN-4U31415042022-12-07 12:58:30-23.1552-46.82143004115545Clb=-4.6m/s t=-69.3C h=-1.0% p=121.3hPa 405.301 MHz Type=RS41-SGP ser=U3141504 Radiosonde auto_rx v1.5.8
PY2PE-11U31415042022-12-07 12:58:21-23.1552-46.82143004115545Clb=-4.6m/s t=-69.3C h=8.3% p=121.3hPa 405.301 MHz Type=RS41-SGP ser=U3141504 Radiosonde
PU2YGG-11U31415042022-12-07 12:57:30-23.1587-46.81523076515775Clb=-4.8m/s t=-71.0C h=8.6% p=116.7hPa 405.300 MHz Type=RS41-SGP ser=U3141504 Radiosonde
PU2YGG-11U31415042022-12-07 12:56:28-23.1624-46.80833156116067Clb=-4.8m/s t=-73.1C h=9.2% p=111.1hPa 405.300 MHz Type=RS41-SGP ser=U3141504 Radiosonde
PU2YGG-11U31415042022-12-07 12:55:26-23.1668-46.80043126316367Clb=-4.6m/s t=-73.3C h=9.6% p=105.5hPa 405.300 MHz Type=RS41-SGP ser=U3141504 Radiosonde
PU2YGG-11U31415042022-12-07 12:54:24-23.1706-46.79083124816658Clb=-4.7m/s t=-74.1C h=9.7% p=100.4hPa 405.300 MHz Type=RS41-SGP ser=U3141504 Radiosonde
PU2YGG-11U31415042022-12-07 12:53:22-23.1727-46.78232863116948Clb=-4.9m/s t=-74.1C h=9.9% p=95.5hPa 405.300 MHz Type=RS41-SGP ser=U3141504 Radiosonde
PU2YGG-11U31415042022-12-07 12:52:20-23.1747-46.77342783517242Clb=-4.1m/s t=-75.2C h=9.7% p=90.8hPa 405.300 MHz Type=RS41-SGP ser=U3141504 Radiosonde
PU2YGG-11U31415042022-12-07 12:51:18-23.1762-46.76372683517560Clb=-5.4m/s t=-74.9C h=8.2% p=85.9hPa 405.300 MHz Type=RS41-SGP ser=U3141504 Radiosonde
PU2YGG-11U31415042022-12-07 12:49:44-23.179-46.75152927218100Clb=-6.0m/s t=-76.1C h=6.7% p=78.3hPa 405.300 MHz Type=RS41-SGP ser=U3141504 Radiosonde
PU2YGG-11U31415042022-12-07 12:48:42-23.1814-46.74313136518477Clb=-5.8m/s t=-74.5C h=5.4% p=73.2hPa 405.300 MHz Type=RS41-SGP ser=U3141504 Radiosonde
PU2YGG-11U31415042022-12-07 12:47:40-23.1829-46.73422506718845Clb=-5.4m/s t=-74.6C h=4.3% p=68.8hPa 405.300 MHz Type=RS41-SGP ser=U3141504 Radiosonde
PU2YGG-11U31415042022-12-07 12:46:38-23.1843-46.72662546719207Clb=-6.0m/s t=-72.4C h=3.0% p=64.7hPa 405.301 MHz Type=RS41-SGP ser=U3141504 Radiosonde
PU2YGG-11U31415042022-12-07 12:45:36-23.1852-46.71882658119610Clb=-6.8m/s t=-71.4C h=2.3% p=60.4hPa 405.301 MHz Type=RS41-SGP ser=U3141504 Radiosonde
PU2YGG-11U31415042022-12-07 12:44:34-23.1854-46.71082627620045Clb=-6.8m/s t=-69.8C h=1.6% p=56.1hPa 405.301 MHz Type=RS41-SGP ser=U3141504 Radiosonde
PY2GN-4U31415042022-12-07 12:44:26-23.1843-46.70712013720288Clb=-6.6m/s t=-69.2C h=1.5% p=53.9hPa 405.301 MHz Type=RS41-SGP ser=U3141504 Radiosonde auto_rx v1.5.8
PY2PE-11U31415042022-12-07 12:44:06-23.1844-46.70682955720334Clb=-6.1m/s t=-68.2C h=1.2% p=53.5hPa 405.301 MHz Type=RS41-SGP ser=U3141504 Radiosonde
PU2YGG-11U31415042022-12-07 12:43:32-23.184-46.70452455220462Clb=-6.8m/s t=-67.6C h=1.1% p=52.4hPa 405.301 MHz Type=RS41-SGP ser=U3141504 Radiosonde
PY2PE-11U31415042022-12-07 12:43:30-23.1835-46.70372702820536Clb=-6.1m/s t=-67.3C h=1.1% p=51.8hPa 405.301 MHz Type=RS41-SGP ser=U3141504 Radiosonde
PY2GN-4U31415042022-12-07 12:43:15-23.1827-46.70122314320651Clb=-5.6m/s t=-66.2C h=1.0% p=50.8hPa 405.301 MHz Type=RS41-SGP ser=U3141504 Radiosonde auto_rx v1.5.8
PY2PE-11U31415042022-12-07 12:43:02-23.182-46.69992445620715Clb=-8.8m/s t=-66.2C h=0.9% p=50.3hPa 405.301 MHz Type=RS41-SGP ser=U3141504 Radiosonde
PY2GN-4U31415042022-12-07 12:42:38-23.181-46.69792383520885Clb=-10.2m/s t=-66.0C h=0.8% p=48.9hPa 405.301 MHz Type=RS41-SGP ser=U3141504 Radiosonde auto_rx v1.5.8
PU2YGG-11U31415042022-12-07 12:42:30-23.181-46.69792383520885Clb=-10.2m/s t=-66.0C h=0.8% p=48.9hPa 405.301 MHz Type=RS41-SGP ser=U3141504 Radiosonde
PY2PE-11U31415042022-12-07 12:42:24-23.1804-46.6972373120989Clb=-7.3m/s t=-65.1C h=0.7% p=48.0hPa 405.301 MHz Type=RS41-SGP ser=U3141504 Radiosonde
PY2GN-4U31415042022-12-07 12:42:01-23.1798-46.69622332621137Clb=-7.4m/s t=-64.1C h=0.6% p=46.9hPa 405.301 MHz Type=RS41-SGP ser=U3141504 Radiosonde auto_rx v1.5.8
PU2YGG-11U31415042022-12-07 12:41:58-23.1798-46.69612332821145Clb=-7.6m/s t=-64.0C h=0.6% p=46.8hPa 405.301 MHz Type=RS41-SGP ser=U3141504 Radiosonde
PY2PE-11U31415042022-12-07 12:41:47-23.1792-46.69532323121245Clb=-9.3m/s t=-63.9C h=0.6% p=46.0hPa 405.301 MHz Type=RS41-SGP ser=U3141504 Radiosonde
PY2GN-4U31415042022-12-07 12:41:30-23.1787-46.6945230721395Clb=-8.3m/s t=-63.3C h=0.6% p=45.0hPa 405.301 MHz Type=RS41-SGP ser=U3141504 Radiosonde auto_rx v1.5.8
PY2PE-11U31415042022-12-07 12:41:16-23.1786-46.69432391321520Clb=-8.5m/s t=-63.4C h=0.5% p=44.0hPa 405.301 MHz Type=RS41-SGP ser=U3141504 Radiosonde
PU2YGG-11U31415042022-12-07 12:40:56-23.1784-46.69352451721704Clb=-10.0m/s t=-63.4C h=0.5% p=42.7hPa 405.301 MHz Type=RS41-SGP ser=U3141504 Radiosonde
PU2YGG-11U31415042022-12-07 12:39:54-23.1797-46.68962965222332Clb=-10.1m/s t=-62.6C h=0.4% p=38.6hPa 405.301 MHz Type=RS41-SGP ser=U3141504 Radiosonde
PU2YGG-11U31415042022-12-07 12:38:52-23.1814-46.68292834822967Clb=-10.4m/s t=-61.7C h=0.3% p=34.8hPa 405.301 MHz Type=RS41-SGP ser=U3141504 Radiosonde
PU2YGG-11U31415042022-12-07 12:37:50-23.1802-46.67762882423600Clb=-10.3m/s t=-58.4C h=0.1% p=31.4hPa 405.301 MHz Type=RS41-SGP ser=U3141504 Radiosonde
PU2MUS-12U31415042022-12-07 12:37:22-23.1808-46.67192882424212Clb=-11.6m/s t=-273.0C h=-1.0% p=-1.0hPa 405.301 MHz Type=RS41 ser=U3141504 Radiosonde
PU2YGG-11U31415042022-12-07 12:36:48-23.181-46.67163172424269Clb=-11.9m/s t=-55.6C h=0.0% p=28.3hPa 405.301 MHz Type=RS41-SGP ser=U3141504 Radiosonde
PU2YGG-11U31415042022-12-07 12:35:46-23.1851-46.66993522425035Clb=-13.3m/s t=-55.3C h=0.0% p=25.1hPa 405.301 MHz Type=RS41-SGP ser=U3141504 Radiosonde
PU2YGG-11U31415042022-12-07 12:34:44-23.187-46.66672692025879Clb=-0.5m/s t=-55.6C h=0.0% p=22.0hPa 405.301 MHz Type=RS41-SGP ser=U3141504 Radiosonde
PU2YGG-11U31415042022-12-07 12:33:42-23.1879-46.6633142625454Clb=9.8m/s t=-55.6C h=0.0% p=23.5hPa 405.301 MHz Type=RS41-SGP ser=U3141504 Radiosonde
PU2YGG-11U31415042022-12-07 12:33:10-23.1895-46.6623503125231Clb=6.9m/s t=-55.7C h=0.0% p=24.3hPa 405.301 MHz Type=RS41-SGP ser=U3141504 Radiosonde
PU2YGG-11U31415042022-12-07 12:32:40-23.1915-46.6618182825011Clb=6.3m/s t=-55.0C h=0.0% p=25.2hPa 405.301 MHz Type=RS41-SGP ser=U3141504 Radiosonde
PU2YGG-11U31415042022-12-07 12:32:08-23.1931-46.66173533524774Clb=5.0m/s t=-55.3C h=0.0% p=26.1hPa 405.301 MHz Type=RS41-SGP ser=U3141504 Radiosonde
PU2YGG-11U31415042022-12-07 12:31:06-23.1975-46.65993262024326Clb=7.4m/s t=-54.4C h=0.0% p=28.0hPa 405.301 MHz Type=RS41-SGP ser=U3141504 Radiosonde
PU2YGG-11U31415042022-12-07 12:30:04-23.1989-46.65552763523901Clb=8.8m/s t=-57.1C h=0.1% p=29.9hPa 405.300 MHz Type=RS41-SGP ser=U3141504 Radiosonde
PU2YGG-11U31415042022-12-07 12:29:02-23.1992-46.64882453023470Clb=5.4m/s t=-59.3C h=0.2% p=32.1hPa 405.300 MHz Type=RS41-SGP ser=U3141504 Radiosonde
PU2YGG-11U31415042022-12-07 12:28:00-23.1984-46.64222683522969Clb=7.5m/s t=-63.0C h=0.4% p=34.7hPa 405.300 MHz Type=RS41-SGP ser=U3141504 Radiosonde
PU2YGG-11U31415042022-12-07 12:26:58-23.2001-46.63412905222353Clb=5.8m/s t=-62.8C h=0.5% p=38.4hPa 405.300 MHz Type=RS41-SGP ser=U3141504 Radiosonde
PU2YGG-11U31415042022-12-07 12:25:56-23.2013-46.6298319421902Clb=7.1m/s t=-63.6C h=0.8% p=41.3hPa 405.300 MHz Type=RS41-SGP ser=U3141504 Radiosonde
PY2PE-11U31415042022-12-07 12:25:42-23.2011-46.62812491121620Clb=6.0m/s t=-64.3C h=1.0% p=43.3hPa 405.301 MHz Type=RS41-SGP ser=U3141504 Radiosonde
PY2PE-11U31415042022-12-07 12:24:21-23.2008-46.62772182021391Clb=6.6m/s t=-64.5C h=1.2% p=44.9hPa 405.301 MHz Type=RS41-SGP ser=U3141504 Radiosonde
PY2PE-11U31415042022-12-07 12:23:52-23.1995-46.62582101721176Clb=5.2m/s t=-64.9C h=1.5% p=46.5hPa 405.301 MHz Type=RS41-SGP ser=U3141504 Radiosonde
PU2YGG-11U31415042022-12-07 12:23:20-23.1986-46.6252393321043Clb=4.4m/s t=-65.2C h=1.8% p=47.6hPa 405.300 MHz Type=RS41-SGP ser=U3141504 Radiosonde
PY2PE-11U31415042022-12-07 12:23:10-23.1981-46.62412293320955Clb=5.8m/s t=-65.7C h=2.0% p=48.2hPa 405.301 MHz Type=RS41-SGP ser=U3141504 Radiosonde
PY2PE-11U31415042022-12-07 12:22:50-23.1964-46.62072395920728Clb=5.3m/s t=-66.2C h=2.6% p=50.1hPa 405.301 MHz Type=RS41-SGP ser=U3141504 Radiosonde
PU2YGG-11U31415042022-12-07 12:22:18-23.1952-46.6182454320573Clb=4.5m/s t=-67.1C h=2.9% p=51.4hPa 405.300 MHz Type=RS41-SGP ser=U3141504 Radiosonde
PU2YGG-11U31415042022-12-07 12:21:48-23.1942-46.61472714320369Clb=3.6m/s t=-68.9C h=3.8% p=53.1hPa 405.300 MHz Type=RS41-SGP ser=U3141504 Radiosonde
PU2YGG-11U31415042022-12-07 12:21:16-23.1931-46.61172393320174Clb=6.6m/s t=-69.1C h=4.5% p=54.9hPa 405.300 MHz Type=RS41-SGP ser=U3141504 Radiosonde
PU2YGG-11U31415042022-12-07 12:20:14-23.1923-46.60442755019775Clb=7.6m/s t=-71.7C h=6.4% p=58.7hPa 405.300 MHz Type=RS41-SGP ser=U3141504 Radiosonde
PU2YGG-11U31415042022-12-07 12:19:12-23.1943-46.59622754619388Clb=4.7m/s t=-72.9C h=7.8% p=62.7hPa 405.300 MHz Type=RS41-SGP ser=U3141504 Radiosonde
PU2YGG-11U31415042022-12-07 12:18:10-23.1966-46.58963003318983Clb=4.3m/s t=-75.1C h=9.6% p=67.2hPa 405.300 MHz Type=RS41-SGP ser=U3141504 Radiosonde
PU2YGG-11U31415042022-12-07 12:17:08-23.1975-46.58252894818600Clb=4.7m/s t=-74.5C h=9.6% p=71.8hPa 405.300 MHz Type=RS41-SGP ser=U3141504 Radiosonde
PU2YGG-11U31415042022-12-07 12:16:06-23.2005-46.57542934818219Clb=6.4m/s t=-75.5C h=9.9% p=76.6hPa 405.300 MHz Type=RS41-SGP ser=U3141504 Radiosonde
PU2YGG-11U31415042022-12-07 12:15:04-23.2034-46.56752915417816Clb=7.0m/s t=-76.0C h=9.7% p=82.2hPa 405.300 MHz Type=RS41-SGP ser=U3141504 Radiosonde
PU2YGG-11U31415042022-12-07 12:14:02-23.2048-46.55842796917416Clb=4.5m/s t=-75.3C h=9.5% p=88.0hPa 405.300 MHz Type=RS41-SGP ser=U3141504 Radiosonde
PU2YGG-11U31415042022-12-07 12:12:28-23.2083-46.54342785416841Clb=5.5m/s t=-74.5C h=8.1% p=97.2hPa 405.300 MHz Type=RS41-SGP ser=U3141504 Radiosonde
PU2YGG-11U31415042022-12-07 12:11:26-23.2114-46.53352897016426Clb=5.2m/s t=-73.6C h=8.1% p=104.4hPa 405.300 MHz Type=RS41-SGP ser=U3141504 Radiosonde
PU2YGG-11U31415042022-12-07 12:10:24-23.216-46.52392975716069Clb=4.8m/s t=-72.8C h=8.1% p=111.8hPa 405.300 MHz Type=RS41-SGP ser=U3141504 Radiosonde
PU2YGG-11U31415042022-12-07 12:09:22-23.2196-46.51583107015644Clb=8.2m/s t=-70.5C h=8.3% p=119.1hPa 405.300 MHz Type=RS41-SGP ser=U3141504 Radiosonde
PU2YGG-11U31415042022-12-07 12:08:20-23.2252-46.5073155915226Clb=5.6m/s t=-69.2C h=8.4% p=127.8hPa 405.300 MHz Type=RS41-SGP ser=U3141504 Radiosonde
PU2YGG-11U31415042022-12-07 12:07:18-23.2323-46.49983306514794Clb=6.4m/s t=-67.6C h=9.3% p=137.4hPa 405.300 MHz Type=RS41-SGP ser=U3141504 Radiosonde
PU2YGG-11U31415042022-12-07 12:06:16-23.2398-46.49783494614378Clb=6.7m/s t=-65.1C h=9.4% p=147.0hPa 405.300 MHz Type=RS41-SGP ser=U3141504 Radiosonde
PY2PE-11U31415042022-12-07 12:06:09-23.2504-46.497246513891Clb=7.3m/s t=-62.0C h=7.9% p=159.0hPa 405.301 MHz Type=RS41-SGP ser=U3141504 Radiosonde
PY2GN-4U31415042022-12-07 12:06:05-23.2509-46.497206513869Clb=9.3m/s t=-61.8C h=7.8% p=159.6hPa 405.300 MHz Type=RS41-SGP ser=U3141504 Radiosonde auto_rx v1.5.8
PU2YGG-11U31415042022-12-07 12:04:42-23.2538-46.49723566913753Clb=5.9m/s t=-61.0C h=7.4% p=162.7hPa 405.300 MHz Type=RS41-SGP ser=U3141504 Radiosonde
PY2GN-4U31415042022-12-07 12:04:00-23.2624-46.497667813433Clb=3.9m/s t=-58.5C h=6.9% p=171.2hPa 405.300 MHz Type=RS41-SGP ser=U3141504 Radiosonde auto_rx v1.5.8
PU2YGG-11U31415042022-12-07 12:03:40-23.2659-46.497978313326Clb=5.8m/s t=-57.7C h=6.1% p=174.1hPa 405.300 MHz Type=RS41-SGP ser=U3141504 Radiosonde
PY2PE-11U31415042022-12-07 12:03:35-23.2682-46.498368713258Clb=5.6m/s t=-57.1C h=5.5% p=176.0hPa 405.301 MHz Type=RS41-SGP ser=U3141504 Radiosonde
PY2PE-11U31415042022-12-07 12:02:58-23.2746-46.499587613053Clb=5.6m/s t=-55.4C h=4.6% p=181.7hPa 405.301 MHz Type=RS41-SGP ser=U3141504 Radiosonde
PU2YGG-11U31415042022-12-07 12:02:38-23.2796-46.5009188312896Clb=4.7m/s t=-54.6C h=4.6% p=186.2hPa 405.300 MHz Type=RS41-SGP ser=U3141504 Radiosonde
PU2YGG-11U31415042022-12-07 12:01:36-23.2925-46.5048159812549Clb=5.1m/s t=-273.0C h=-1.0% p=196.5hPa 405.300 MHz Type=RS41-SGP ser=U3141504 Radiosonde
PU2YGG-11U31415042022-12-07 12:00:34-23.3079-46.51052010412162Clb=5.4m/s t=-273.0C h=-1.0% p=-1.0hPa 405.300 MHz Type=RS41-SGP ser=U3141504 Radiosonde
PU2YGG-11U31415042022-12-07 11:59:32-23.3266-46.51972010611697Clb=4.7m/s t=-273.0C h=-1.0% p=-1.0hPa 405.300 MHz Type=RS41-SGP ser=U3141504 Radiosonde
PU2YGG-11U31415042022-12-07 11:58:30-23.3377-46.52461911311451Clb=5.9m/s t=-273.0C h=-1.0% p=-1.0hPa 405.300 MHz Type=RS41-SGP ser=U3141504 Radiosonde
PU2YGG-11U31415042022-12-07 11:57:28-23.3545-46.53142310711051Clb=6.2m/s t=-273.0C h=-1.0% p=-1.0hPa 405.300 MHz Type=RS41 ser=U3141504 Radiosonde
PY2PE-11U31415042022-12-07 11:57:17-23.3995-46.5473211069975Clb=8.5m/s t=-33.7C h=5.9% p=287.6hPa 405.301 MHz Type=RS41-SGP ser=U3141504 Radiosonde
PY2GN-4U31415042022-12-07 11:56:51-23.4025-46.5481211139890Clb=4.7m/s t=-33.0C h=5.7% p=291.1hPa 405.300 MHz Type=RS41-SGP ser=U3141504 Radiosonde auto_rx v1.5.8
PY2PE-11U31415042022-12-07 11:56:09-23.4079-46.5497191249758Clb=6.8m/s t=-31.8C h=5.0% p=296.8hPa 405.301 MHz Type=RS41-SGP ser=U3141504 Radiosonde
PY2GN-4U31415042022-12-07 11:55:51-23.4105-46.5504211199684Clb=9.0m/s t=-31.1C h=3.9% p=299.9hPa 405.300 MHz Type=RS41-SGP ser=U3141504 Radiosonde auto_rx v1.5.8
PY2PE-11U31415042022-12-07 11:55:10-23.4158-46.55152899535Clb=5.4m/s t=-29.7C h=3.0% p=306.2hPa 405.301 MHz Type=RS41-SGP ser=U3141504 Radiosonde
PY2GN-4U31415042022-12-07 11:54:55-23.418-46.55219819465Clb=10.4m/s t=-29.1C h=2.4% p=309.1hPa 405.300 MHz Type=RS41-SGP ser=U3141504 Radiosonde auto_rx v1.5.8
PY2PE-11U31415042022-12-07 11:54:13-23.4227-46.552827899320Clb=10.0m/s t=-27.8C h=1.6% p=315.4hPa 405.301 MHz Type=RS41-SGP ser=U3141504 Radiosonde
PY2GN-4U31415042022-12-07 11:53:57-23.4247-46.55328989263Clb=9.0m/s t=-27.3C h=1.4% p=318.0hPa 405.300 MHz Type=RS41-SGP ser=U3141504 Radiosonde auto_rx v1.5.8
PU2MUS-12U31415042022-12-07 11:52:52-23.4292-46.55446919102Clb=5.6m/s t=-273.0C h=-1.0% p=-1.0hPa 405.301 MHz Type=RS41-SGP ser=U3141504 Radiosonde
PY2PE-11U31415042022-12-07 11:52:09-23.4359-46.55652858884Clb=3.8m/s t=-24.5C h=0.8% p=334.8hPa 405.301 MHz Type=RS41-SGP ser=U3141504 Radiosonde
PY2GN-4U31415042022-12-07 11:52:00-23.437-46.556618818856Clb=5.7m/s t=-24.3C h=0.8% p=336.3hPa 405.300 MHz Type=RS41-SGP ser=U3141504 Radiosonde auto_rx v1.5.8
PY2PE-11U31415042022-12-07 11:51:34-23.4421-46.558216988683Clb=8.2m/s t=-23.2C h=0.9% p=344.1hPa 405.301 MHz Type=RS41-SGP ser=U3141504 Radiosonde
PY2GN-4U31415042022-12-07 11:51:30-23.4434-46.55845938661Clb=5.6m/s t=-23.1C h=1.0% p=345.1hPa 405.300 MHz Type=RS41-SGP ser=U3141504 Radiosonde auto_rx v1.5.8
PY2GN-4U31415042022-12-07 11:51:17-23.479-46.572228487071Clb=9.1m/s t=-14.4C h=1.4% p=427.2hPa 405.300 MHz Type=RS41-SGP ser=U3141504 Radiosonde auto_rx v1.5.8
PY2GN-4U31415042022-12-07 11:51:15-23.4818-46.574123356847Clb=6.6m/s t=-12.5C h=1.4% p=440.0hPa 405.300 MHz Type=RS41-SGP ser=U3141504 Radiosonde auto_rx v1.5.8
PY2PE-11U31415042022-12-07 11:51:14-23.4822-46.574425566806Clb=11.0m/s t=-12.2C h=1.5% p=442.2hPa 405.301 MHz Type=RS41-SGP ser=U3141504 Radiosonde
PY2GN-4U31415042022-12-07 11:51:13-23.4848-46.576351396615Clb=9.5m/s t=-11.7C h=7.2% p=453.6hPa 405.300 MHz Type=RS41-SGP ser=U3141504 Radiosonde auto_rx v1.5.8
PY2PE-11U31415042022-12-07 11:51:12-23.4852-46.576739486570Clb=7.0m/s t=-11.8C h=17.8% p=456.3hPa 405.301 MHz Type=RS41-SGP ser=U3141504 Radiosonde
PY2GN-4U31415042022-12-07 11:51:04-23.4863-46.578880436398Clb=8.4m/s t=-10.4C h=32.3% p=466.6hPa 405.300 MHz Type=RS41-SGP ser=U3141504 Radiosonde auto_rx v1.5.8
PY2PE-11U31415042022-12-07 11:50:53-23.4865-46.579590376351Clb=6.2m/s t=-9.9C h=31.9% p=469.4hPa 405.301 MHz Type=RS41-SGP ser=U3141504 Radiosonde
PY2GN-4U31415042022-12-07 11:50:13-23.4875-46.581965306199Clb=4.6m/s t=-8.5C h=33.6% p=478.5hPa 405.300 MHz Type=RS41-SGP ser=U3141504 Radiosonde auto_rx v1.5.8
PY2PE-11U31415042022-12-07 11:49:58-23.4879-46.582671306145Clb=7.4m/s t=-7.9C h=33.9% p=481.9hPa 405.301 MHz Type=RS41-SGP ser=U3141504 Radiosonde
PY2GN-4U31415042022-12-07 11:49:20-23.4884-46.584680305990Clb=6.9m/s t=-6.6C h=32.4% p=491.8hPa 405.300 MHz Type=RS41-SGP ser=U3141504 Radiosonde auto_rx v1.5.8
PY2PE-11U31415042022-12-07 11:49:02-23.4887-46.585658395926Clb=6.3m/s t=-6.4C h=11.7% p=495.8hPa 405.301 MHz Type=RS41-SGP ser=U3141504 Radiosonde
PY2GN-4U31415042022-12-07 11:48:25-23.4897-46.587544285772Clb=6.6m/s t=-6.0C h=50.7% p=505.5hPa 405.300 MHz Type=RS41-SGP ser=U3141504 Radiosonde auto_rx v1.5.8
PY2PE-11U31415042022-12-07 11:48:06-23.4902-46.588463465695Clb=6.7m/s t=-5.7C h=63.9% p=510.5hPa 405.301 MHz Type=RS41-SGP ser=U3141504 Radiosonde
PU2PAGU31415042022-12-07 11:47:58-23.4903-46.588870375667Clb=8.5m/s p=512.3hPa t=-5.5C h=64.8% 405.300MHz Type=RS41-SGP rdzTTGOsonde
PY2GN-4U31415042022-12-07 11:47:29-23.491-46.590544375560Clb=6.8m/s t=-4.7C h=39.4% p=519.7hPa 405.300 MHz Type=RS41-SGP ser=U3141504 Radiosonde auto_rx v1.5.8
PU2PAGU31415042022-12-07 11:47:17-23.4913-46.590974505531Clb=7.2m/s p=521.4hPa t=-4.3C h=32.7% 405.300MHz Type=RS41-SGP rdzTTGOsonde
PY2PE-11U31415042022-12-07 11:47:05-23.4916-46.591446395486Clb=5.7m/s t=-4.2C h=42.6% p=524.5hPa 405.301 MHz Type=RS41-SGP ser=U3141504 Radiosonde
PU2PAGU31415042022-12-07 11:46:57-23.4918-46.591875415461Clb=8.1m/s p=526.2hPa t=-4.1C h=56.5% 405.300MHz Type=RS41-SGP rdzTTGOsonde
PU2PAGU31415042022-12-07 11:46:34-23.4925-46.59348505376Clb=4.4m/s p=531.8hPa t=-3.3C h=33.9% 405.300MHz Type=RS41-SGP rdzTTGOsonde
PY2GN-4U31415042022-12-07 11:46:30-23.4927-46.593348415354Clb=8.0m/s t=-3.2C h=34.7% p=533.3hPa 405.300 MHz Type=RS41-SGP ser=U3141504 Radiosonde auto_rx v1.5.8
PU2PAGU31415042022-12-07 11:46:14-23.4932-46.59471465307Clb=5.6m/s p=536.4hPa t=-2.9C h=40.9% 405.300MHz Type=RS41-SGP rdzTTGOsonde
PY2PE-11U31415042022-12-07 11:46:07-23.4935-46.594435445275Clb=7.7m/s t=-2.7C h=42.4% p=538.6hPa 405.301 MHz Type=RS41-SGP ser=U3141504 Radiosonde
PU2PAGU31415042022-12-07 11:45:55-23.494-46.595161485240Clb=6.0m/s p=541.0hPa t=-2.4C h=45.8% 405.300MHz Type=RS41-SGP rdzTTGOsonde
PU2PAGU31415042022-12-07 11:45:33-23.4946-46.595928375164Clb=6.0m/s p=546.4hPa t=-2.2C h=43.3% 405.300MHz Type=RS41-SGP rdzTTGOsonde
PU2PAGU31415042022-12-07 11:45:16-23.4953-46.596743395097Clb=8.9m/s p=550.8hPa t=-2.0C h=54.5% 405.300MHz Type=RS41-SGP rdzTTGOsonde
PY2PE-11U31415042022-12-07 11:45:08-23.4956-46.59755525066Clb=7.0m/s t=-1.8C h=58.3% p=552.9hPa 405.301 MHz Type=RS41-SGP ser=U3141504 Radiosonde
PU2PAGU31415042022-12-07 11:44:56-23.4959-46.597561395021Clb=9.7m/s p=556.1hPa t=-1.6C h=57.2% 405.300MHz Type=RS41-SGP rdzTTGOsonde
PU2PAGU31415042022-12-07 11:44:36-23.4965-46.598765394947Clb=6.0m/s p=561.3hPa t=-1.2C h=56.5% 405.300MHz Type=RS41-SGP rdzTTGOsonde
PU2PAGU31415042022-12-07 11:44:16-23.4971-46.599649334885Clb=7.2m/s p=565.6hPa t=-1.0C h=65.1% 405.300MHz Type=RS41-SGP rdzTTGOsonde
PY2PE-11U31415042022-12-07 11:44:10-23.4974-46.665524859Clb=6.7m/s t=-1.0C h=65.6% p=567.3hPa 405.301 MHz Type=RS41-SGP ser=U3141504 Radiosonde
PU2PAGU31415042022-12-07 11:44:01-23.4976-46.600764444813Clb=3.8m/s p=570.5hPa t=-0.7C h=63.6% 405.300MHz Type=RS41-SGP rdzTTGOsonde
PY2PE-11U31415042022-12-07 11:43:56-23.4989-46.603462484662Clb=7.0m/s t=0.4C h=53.5% p=581.5hPa 405.301 MHz Type=RS41-SGP ser=U3141504 Radiosonde
PY2GN-4U31415042022-12-07 11:43:52-23.4997-46.60555444553Clb=5.4m/s t=1.1C h=-1.0% p=-1.0hPa 405.300 MHz Type=RS41 ser=U3141504 Radiosonde auto_rx v1.5.8
PU2PAGU31415042022-12-07 11:43:49-23.5002-46.60663484486Clb=4.6m/s p=594.2hPa t=1.2C h=75.0% 405.300MHz Type=RS41-SGP rdzTTGOsonde
PY2PE-11U31415042022-12-07 11:43:48-23.5006-46.606455524454Clb=5.9m/s t=1.4C h=76.9% p=596.5hPa 405.301 MHz Type=RS41-SGP ser=U3141504 Radiosonde
PU2PAGU31415042022-12-07 11:43:46-23.5009-46.60750484420Clb=6.3m/s p=598.9hPa t=1.6C h=71.0% 405.300MHz Type=RS41-SGP rdzTTGOsonde
PY2GN-4U31415042022-12-07 11:43:45-23.5015-46.608161614353Clb=8.5m/s t=1.8C h=-1.0% p=-1.0hPa 405.300 MHz Type=RS41 ser=U3141504 Radiosonde auto_rx v1.5.8
PU2PAGU31415042022-12-07 11:43:44-23.5015-46.608163614353Clb=8.5m/s p=603.7hPa 405.300MHz Type=RS41-SGP rdzTTGOsonde
PU2PAGU31415042022-12-07 11:43:32-23.5022-46.609456484283Clb=9.4m/s p=609.1hPa 405.300MHz Type=RS41-SGP rdzTTGOsonde
PY2PE-11U31415042022-12-07 11:43:29-23.5024-46.609966464246Clb=6.2m/s t=2.2C h=70.0% p=611.9hPa 405.301 MHz Type=RS41-SGP ser=U3141504 Radiosonde
PU2PAGU31415042022-12-07 11:43:24-23.5027-46.610570334210Clb=8.7m/s p=614.6hPa 405.300MHz Type=RS41-SGP rdzTTGOsonde
PY2GN-4U31415042022-12-07 11:43:19-23.503-46.61181354158Clb=5.4m/s t=2.6C h=-1.0% p=-1.0hPa 405.300 MHz Type=RS41 ser=U3141504 Radiosonde auto_rx v1.5.8
PU2PAGU31415042022-12-07 11:43:12-23.5032-46.611447464132Clb=9.5m/s p=620.8hPa 405.300MHz Type=RS41-SGP rdzTTGOsonde
PU2PAGU31415042022-12-07 11:43:01-23.5039-46.612458504054Clb=6.5m/s p=626.8hPa 405.300MHz Type=RS41-SGP rdzTTGOsonde
PY2PE-11U31415042022-12-07 11:42:58-23.5042-46.612741354029Clb=7.3m/s t=3.2C h=79.6% p=628.6hPa 405.301 MHz Type=RS41-SGP ser=U3141504 Radiosonde
PU2PAGU31415042022-12-07 11:42:52-23.5046-46.613235433980Clb=7.6m/s p=632.5hPa 405.300MHz Type=RS41-SGP rdzTTGOsonde
PU2PAGU31415042022-12-07 11:42:44-23.5051-46.614151333919Clb=5.8m/s 405.300MHz Type=RS41 rdzTTGOsonde
PU2PAGU31415042022-12-07 11:42:33-23.5057-46.61558483852Clb=6.1m/s 405.300MHz Type=RS41 rdzTTGOsonde
PY2PE-11U31415042022-12-07 11:42:29-23.5058-46.615361353834Clb=7.1m/s t=4.6C h=75.9% p=643.7hPa 405.301 MHz Type=RS41-SGP ser=U3141504 Radiosonde
PU2PAGU31415042022-12-07 11:42:14-23.5063-46.615953303780Clb=5.7m/s 405.300MHz Type=RS41 rdzTTGOsonde
PU2PAGU31415042022-12-07 11:41:56-23.5068-46.616658393711Clb=5.0m/s 405.300MHz Type=RS41 rdzTTGOsonde
PY2PE-11U31415042022-12-07 11:41:35-23.5074-46.617740203623Clb=6.1m/s t=5.8C h=86.2% p=660.4hPa 405.301 MHz Type=RS41-SGP ser=U3141504 Radiosonde
PU2PAGU31415042022-12-07 11:41:27-23.5075-46.617989283596Clb=6.0m/s 405.300MHz Type=RS41 rdzTTGOsonde
PY2PE-11U31415042022-12-07 11:40:41-23.5082-46.619863223417Clb=6.9m/s t=7.2C h=82.0% p=677.5hPa 405.301 MHz Type=RS41-SGP ser=U3141504 Radiosonde
PY2PE-11U31415042022-12-07 11:39:56-23.5087-46.621579333198Clb=7.8m/s t=8.6C h=83.7% p=695.4hPa 405.301 MHz Type=RS41-SGP ser=U3141504 Radiosonde
PY2PE-11U31415042022-12-07 11:39:05-23.5088-46.623298172982Clb=7.4m/s t=9.5C h=80.9% p=713.5hPa 405.301 MHz Type=RS41-SGP ser=U3141504 Radiosonde
PY2PE-11U31415042022-12-07 11:38:08-23.5088-46.624794222789Clb=6.8m/s t=10.1C h=87.1% p=730.6hPa 405.301 MHz Type=RS41-SGP ser=U3141504 Radiosonde
PY2PE-11U31415042022-12-07 11:37:03-23.5088-46.6261107152585Clb=7.3m/s t=11.0C h=98.7% p=748.7hPa 405.301 MHz Type=RS41-SGP ser=U3141504 Radiosonde
PY2PE-11U31415042022-12-07 11:36:03-23.5091-46.627630132377Clb=5.3m/s t=11.8C h=99.1% p=767.2hPa 405.301 MHz Type=RS41-SGP ser=U3141504 Radiosonde
PY2PE-11U31415042022-12-07 11:35:32-23.5096-46.6294892174Clb=6.0m/s t=12.9C h=97.7% p=786.1hPa 405.301 MHz Type=RS41-SGP ser=U3141504 Radiosonde
PY2PE-11U31415042022-12-07 11:35:01-23.5098-46.630215341977Clb=5.5m/s t=14.4C h=93.0% p=804.4hPa 405.301 MHz Type=RS41-SGP ser=U3141504 Radiosonde
PY2PE-11U31415042022-12-07 11:34:42-23.5098-46.63129671785Clb=7.1m/s t=15.6C h=90.8% p=822.8hPa 405.301 MHz Type=RS41-SGP ser=U3141504 Radiosonde
PY2PE-11U31415042022-12-07 11:34:41-23.5101-46.63260171592Clb=3.4m/s t=16.6C h=93.2% p=841.7hPa 405.301 MHz Type=RS41-SGP ser=U3141504 Radiosonde
PY2PE-11U31415042022-12-07 11:34:21-23.5103-46.633191111409Clb=5.7m/s t=17.7C h=91.2% p=859.9hPa 405.301 MHz Type=RS41-SGP ser=U3141504 Radiosonde
PY2PE-11U31415042022-12-07 11:33:28-23.5106-46.63448761211Clb=5.2m/s t=18.5C h=94.5% p=879.5hPa 405.301 MHz Type=RS41-SGP ser=U3141504 Radiosonde
PY2PE-11U31415042022-12-07 11:32:39-23.511-46.635256171023Clb=7.7m/s t=-273.0C h=-1.0% p=898.5hPa 405.301 MHz Type=RS41-SGP ser=U3141504 Radiosonde